Hovedside
METAR-TAF:

METAR-TAF

Lufthavner :

Odense, Danmark

Hans Christian Andersen Airport

breddegrad: 55-29N, lengdegrad: 010-20E, høyde over havet: 17 m

Gjeldene værobservasjon

Denne rapporten ble laget for 4 timer og 31 minutter siden, klokken 14:50 UTC
Vind 10 kt fra Sør, skiftende mellom Sørøst og Sørvest
Temperatur 25°C
Luftfuktighet 36%
Trykk 1020 hPa
Sikt 10 km eller mer
ingen skyer under 1500 m og ingen bygeskyer

METAR: EKOD 271450Z 18010KT 140V220 CAVOK 25/09 Q1020

Tid: 21:21 (19:21 UTC)

Varsel

Denne rapporten ble laget for 7 timer og 31 minutter siden, klokken 11:50 UTC
Varsel gyldig fra 27. klokken 12 UTC til 27. klokken 16 UTC
Vind 10 kt fra Sør
Sikt 10 km eller mer
ingen skyer under 1500 m og ingen bygeskyer

TAF: EKOD 271150Z 2712/2716 19010KT CAVOK

Værobservasjoner og værvarsel for over 4000 flyplasser (METAR- og TAF-rapporter).

Tilgjengelige stasjoner er representert av de røde og gule prikkene på kartet.

Hold musepekeren over prikken for å se navnet på stasjonen.

Klikk så for å se værobservasjoner og -varsler.

For å forandre kartet kan du klikke på den grønne knappen med svart kryss for å zoome inn, på den grønne knappen med strek for å zoome ut, eller på de grønne pilene for å se tilstøtende kart.


METAR-TAF: